Dirección General De Aeronáutica Civil

Dirección Meteorológica de Chile - Servicios Climáticos

Informe General de Control de Calidad de la Estación

Listado de niveles de control de calidad para algunos parámetros
Estación Puerto Aysén Ad. (450001)
Fecha de Revisión de los datos :

Elementos

Registros Niveles de Control Total
Nivel 0 Nivel 1 Nivel 2 Nivel 3 Errores Porcentaje
01 Temperatura del Aire Seco 223.031 0 . 0 . 0 . 0 . 0 0.00 %
02 Temperatura de Rocío 123.347 0 . 0 . 0 . 0 . 0 0.00 %
03 Humedad Relativa del Aire 195.647 0 . 0 . 0 . 0 . 0 0.00 %
04 Temperatura Máxima PM 19.618 0 . 0 . 18 0.09 % 0 . 18 0.09 %
05 Temperatura Mínima AM 19.431 0 . 0 . 1 0.01 % 0 . 1 0.01 %
06 Viento a 10 m. de Altura 157.999 0 . 0 . 0 . 0 . 0 0.00 %
07 Agua Caida, Acumulada 6 Horas 72.219 0 . 212 0.29 % 0 . 0 . 212 0.29 %
08 Presión Atm. a Nivel de Estación (QFE) 194.475 0 . 1 0.00 % 0 . 0 . 1 0.00 %
09 Presión Atm. a Nivel Medio del Mar (QFF) 122.229 0 . 0 . 0 . 0 . 0 0.00 %
10 Presión Atm. Estándar OACI (QNH) 127.073 0 . 0 . 0 . 0 . 0 0.00 %
11 Tiempo Pasado Sinóptico 8.498 0 . 0 . 0 . 0 . 0 0.00 %
12 Tiempo Presente Sinóptico 112.473 0 . 0 . 0 . 0 . 0 0.00 %

Totales

1.376.040 . 0.0000 % . 0.0155 % . 0.0014 % . 0.0000 % 232 0.0169 %

Detalle de Errores Recientes

Fecha del Dato Descripción Información Error Fecha Ingreso
2024-02-21 12:00:00 rrr = s/p y WW = 2 w1=8 w2=2 0.0 2024-02-21 11:46:00
Total de Errores Recientes 1

Detalle de Errores Encontrados

Nivel Fecha del Dato Descripción Información Error Fecha Ingreso
1 2013-06-13 18:00:00 rrr = 0.1 y WW = 1 w1=1 w2=1 0.1 2013-06-13 17:59:00
1 2014-06-13 18:00:00 rrr = 0.1 y WW = 2 w1=2 w2=2 0.1 2014-06-13 17:59:00
1 2014-09-03 18:00:00 rrr = 0.4 y WW = 2 w1=2 w2=2 0.4 2014-09-03 17:58:00
1 2014-09-30 12:00:00 rrr = 1.0 y WW = 2 w1=2 w2=2 1.0 2014-09-30 12:03:00
1 2014-10-09 12:00:00 rrr = 0.2 y WW = 2 w1=2 w2=2 0.2 2014-10-09 11:52:00
1 2014-10-24 18:00:00 rrr = trazas y WW = 2 w1=0 w2=0 0.0 2014-10-24 17:56:00
1 2014-11-03 12:00:00 rrr = 1.0 y WW = 2 w1=2 w2=2 1.0 2014-11-03 11:56:00
1 2014-11-12 12:00:00 rrr = 0.2 y WW = 15 w1=2 w2=2 0.2 2014-11-12 11:56:00
1 2014-11-19 18:00:00 rrr = 0.2 y WW = 2 w1=2 w2=2 0.2 2014-11-19 17:50:00
1 2014-11-21 12:00:00 rrr = 0.2 y WW = 2 w1=2 w2=2 0.2 2014-11-21 11:58:00
1 2014-12-24 12:00:00 rrr = 0.2 y WW = 2 w1=2 w2=2 0.2 2014-12-24 11:55:00
1 2014-12-26 12:00:00 rrr = 5.6 y WW = 2 w1=2 w2=2 5.6 2014-12-26 12:01:00
1 2015-01-05 12:00:00 rrr = 9.0 y WW = 2 w1=2 w2=2 9.0 2015-01-05 11:52:00
1 2015-01-05 18:00:00 rrr = 0.1 y WW = 15 w1=2 w2=2 0.1 2015-01-05 17:56:00
1 2015-01-06 18:00:00 rrr = 0.1 y WW = 2 w1=2 w2=2 0.1 2015-01-06 17:58:00
1 2015-01-19 12:00:00 rrr = 5.4 y WW = 2 w1=2 w2=2 5.4 2015-01-19 11:58:00
1 2015-01-26 18:00:00 rrr = 0.7 y WW = 2 w1=2 w2=2 0.7 2015-01-26 18:03:00
1 2015-02-02 12:00:00 rrr = 4.4 y WW = 2 w1=0 w2=0 4.4 2015-02-02 12:21:00
1 2015-02-06 12:00:00 rrr = 0.2 y WW = 2 w1=2 w2=2 0.2 2015-02-06 11:53:00
1 2015-02-09 12:00:00 rrr = 15.0 y WW = 2 w1=2 w2=2 15.0 2015-02-09 11:58:00
1 2015-02-10 12:00:00 rrr = 6.0 y WW = 2 w1=2 w2=2 6.0 2015-02-10 11:58:00
1 2015-02-11 12:00:00 rrr = 0.2 y WW = 2 w1=2 w2=2 0.2 2015-02-11 11:51:00
1 2015-02-12 12:00:00 rrr = 3.4 y WW = 2 w1=2 w2=2 3.4 2015-02-12 11:53:00
1 2015-03-02 12:00:00 rrr = 25.0 y WW = 2 w1=2 w2=2 25.0 2015-03-02 12:02:00
1 2015-03-18 18:00:00 rrr = s/p y WW = 20 w1=1 w2=1 0.0 2015-03-18 18:01:00
1 2015-04-21 12:00:00 rrr = 0.2 y WW = 2 w1=2 w2=2 0.2 2015-04-21 11:57:00
1 2015-04-23 18:00:00 rrr = trazas y WW = 15 w1=2 w2=2 0.0 2015-04-23 18:00:00
1 2015-04-30 12:00:00 rrr = 2.0 y WW = 2 w1=2 w2=2 2.0 2015-04-30 11:53:00
1 2015-05-07 18:00:00 rrr = trazas y WW = 2 w1=2 w2=2 0.0 2015-05-07 17:59:00
1 2015-05-08 12:00:00 rrr = 0.3 y WW = 2 w1=2 w2=2 0.3 2015-05-08 11:58:00
1 2015-05-19 12:00:00 rrr = 2.0 y WW = 40 w1=2 w2=2 2.0 2015-05-19 11:58:00
1 2015-05-25 12:00:00 rrr = 7.6 y WW = 15 w1=2 w2=2 7.6 2015-05-25 12:01:00
1 2015-06-08 12:00:00 rrr = 4.0 y WW = 40 w1=4 w2=2 4.0 2015-06-08 11:55:00
1 2015-06-09 18:00:00 rrr = s/p y WW = 2 w1=8 w2=2 0.0 2015-06-09 18:01:00
1 2015-06-11 12:00:00 rrr = 2.0 y WW = 40 w1=2 w2=2 2.0 2015-06-11 11:57:00
1 2015-07-23 18:00:00 rrr = 0.2 y WW = 2 w1=2 w2=2 0.2 2015-07-23 17:59:00
1 2015-08-06 18:00:00 rrr = 0.1 y WW = 2 w1=4 w2=2 0.1 2015-08-06 18:00:00
1 2015-08-26 18:00:00 rrr = 0.2 y WW = 2 w1=2 w2=2 0.2 2015-08-26 17:57:00
1 2015-10-01 18:00:00 rrr = trazas y WW = 2 w1=0 w2=0 0.0 2015-10-01 18:03:00
1 2015-10-13 18:00:00 rrr = trazas y WW = 2 w1=2 w2=2 0.0 2015-10-13 18:00:00
1 2015-10-19 18:00:00 rrr = s/p y WW = 2 w1=5 w2=2 0.0 2015-10-19 18:00:00
1 2015-11-09 18:00:00 rrr = s/p y WW = 2 w1=5 w2=2 0.0 2015-11-09 17:59:00
1 2015-11-18 12:00:00 rrr = 29.4 y WW = 2 w1=2 w2=2 29.4 2015-11-18 11:59:00
1 2015-11-30 18:00:00 rrr = 0.2 y WW = 2 w1=2 w2=2 0.2 2015-11-30 18:06:00
1 2015-12-29 12:00:00 rrr = 0.2 y WW = 2 w1=2 w2=2 0.2 2015-12-29 11:59:00
1 2015-12-30 12:00:00 rrr = 0.2 y WW = 2 w1=2 w2=2 0.2 2015-12-30 11:55:00
1 2015-12-31 12:00:00 rrr = 0.2 y WW = 2 w1=2 w2=2 0.2 2015-12-31 11:55:00
1 2016-01-04 12:00:00 rrr = 9.0 y WW = 2 w1=2 w2=2 9.0 2016-01-04 11:55:00
1 2016-01-12 12:00:00 rrr = 0.2 y WW = 15 w1=2 w2=2 0.2 2016-01-12 11:58:00
1 2016-01-18 12:00:00 rrr = 0.2 y WW = 2 w1=2 w2=2 0.2 2016-01-18 11:56:00
1 2016-01-25 12:00:00 rrr = 17.0 y WW = 15 w1=2 w2=2 17.0 2016-01-25 12:00:00
1 2016-01-28 12:00:00 rrr = 0.2 y WW = 2 w1=2 w2=2 0.2 2016-01-28 11:58:00
1 2016-01-29 18:00:00 rrr = 0.2 y WW = 15 w1=2 w2=2 0.2 2016-01-29 18:03:00
1 2016-02-01 12:00:00 rrr = 0.4 y WW = 2 w1=0 w2=0 0.4 2016-02-01 11:54:00
1 2016-02-03 18:00:00 rrr = 0.6 y WW = 2 w1=2 w2=2 0.6 2016-02-03 18:04:00
1 2016-02-22 12:00:00 rrr = 59.0 y WW = 2 w1=1 w2=1 59.0 2016-02-22 11:59:00
1 2016-02-29 12:00:00 rrr = 5.0 y WW = 2 w1=0 w2=0 5.0 2016-02-29 11:47:00
1 2016-03-03 12:00:00 rrr = 0.2 y WW = 2 w1=2 w2=2 0.2 2016-03-03 11:55:00
1 2016-03-03 18:00:00 rrr = s/p y WW = 1 w1=6 w2=2 0.0 2016-03-03 18:02:00
1 2016-03-28 12:00:00 rrr = 0.2 y WW = 5 w1=4 w2=2 0.2 2016-03-28 11:54:00
1 2016-03-29 12:00:00 rrr = 0.2 y WW = 2 w1=2 w2=2 0.2 2016-03-29 11:56:00
1 2016-04-01 12:00:00 rrr = 5.0 y WW = 40 w1=4 w2=2 5.0 2016-04-01 11:58:00
1 2016-04-08 12:00:00 rrr = 0.6 y WW = 2 w1=2 w2=2 0.6 2016-04-08 11:57:00
1 2016-07-21 18:00:00 rrr = 0.3 y WW = 1 w1=2 w2=2 0.3 2016-07-21 17:57:00
1 2016-08-18 12:00:00 rrr = 2.0 y WW = 10 w1=4 w2=2 2.0 2016-08-18 12:02:00
1 2016-08-19 12:00:00 rrr = 10.0 y WW = 40 w1=2 w2=2 10.0 2016-08-19 12:03:00
1 2016-08-22 12:00:00 rrr = 28.0 y WW = 2 w1=2 w2=2 28.0 2016-08-22 11:58:00
1 2016-08-24 12:00:00 rrr = 0.2 y WW = 2 w1=2 w2=2 0.2 2016-08-24 11:59:00
1 2016-08-31 12:00:00 rrr = 9.4 y WW = 2 w1=2 w2=2 9.4 2016-08-31 11:57:00
1 2016-09-13 12:00:00 rrr = 0.2 y WW = 2 w1=2 w2=2 0.2 2016-09-13 12:07:00
1 2016-09-16 12:00:00 rrr = 6.3 y WW = 2 w1=0 w2=0 6.3 2016-09-16 11:58:00
1 2016-09-27 18:00:00 rrr = trazas y WW = 1 w1=1 w2=1 0.0 2016-09-27 18:03:00
1 2016-11-15 18:00:00 rrr = 0.5 y WW = 2 w1=2 w2=2 0.5 2016-11-15 18:02:00
1 2016-12-07 12:00:00 rrr = 0.5 y WW = 2 w1=2 w2=2 0.5 2016-12-07 11:49:00
1 2016-12-19 18:00:00 rrr = s/p y WW = 2 w1=6 w2=2 0.0 2016-12-19 18:19:00
1 2016-12-26 12:00:00 rrr = 10.2 y WW = 2 w1=2 w2=2 10.2 2016-12-26 11:56:00
1 2016-12-28 18:00:00 rrr = trazas y WW = 2 w1=2 w2=2 0.0 2016-12-28 17:48:00
1 2016-12-29 12:00:00 rrr = 0.1 y WW = 2 w1=2 w2=2 0.1 2016-12-29 12:05:00
1 2017-01-09 12:00:00 rrr = 46.0 y WW = 15 w1=2 w2=2 46.0 2017-01-09 12:05:00
1 2017-01-11 12:00:00 rrr = 0.3 y WW = 2 w1=2 w2=2 0.3 2017-01-11 11:54:00
1 2017-01-23 12:00:00 rrr = 13.3 y WW = 2 w1=2 w2=2 13.3 2017-01-23 11:53:00
1 2017-01-24 12:00:00 rrr = 16.3 y WW = 2 w1=2 w2=2 16.3 2017-01-24 11:54:00
1 2017-01-25 12:00:00 rrr = 0.8 y WW = 2 w1=2 w2=2 0.8 2017-01-25 11:57:00
1 2017-02-03 18:00:00 rrr = 0.1 y WW = 2 w1=2 w2=2 0.1 2017-02-03 18:19:00
1 2017-02-10 12:00:00 rrr = 0.4 y WW = 15 w1=2 w2=2 0.4 2017-02-10 12:01:00
1 2017-02-21 18:00:00 rrr = 0.1 y WW = 15 w1=2 w2=2 0.1 2017-02-21 18:12:00
1 2017-02-23 18:00:00 rrr = 0.1 y WW = 2 w1=2 w2=2 0.1 2017-02-23 18:16:00
1 2017-03-09 18:00:00 rrr = 0.2 y WW = 2 w1=2 w2=2 0.2 2017-03-09 18:01:00
1 2017-03-13 12:00:00 rrr = 13.6 y WW = 2 w1=2 w2=2 13.6 2017-03-13 11:56:00
1 2017-03-14 12:00:00 rrr = 0.6 y WW = 15 w1=2 w2=2 0.6 2017-03-14 11:55:00
1 2017-03-27 18:00:00 rrr = 0.1 y WW = 2 w1=2 w2=2 0.1 2017-03-27 18:11:00
1 2017-03-28 12:00:00 rrr = 2.3 y WW = 2 w1=2 w2=2 2.3 2017-03-28 11:58:00
1 2017-03-31 12:00:00 rrr = 1.9 y WW = 2 w1=2 w2=2 1.9 2017-03-31 12:04:00
1 2017-04-06 18:00:00 rrr = 0.2 y WW = 15 w1=2 w2=2 0.2 2017-04-06 18:08:00
1 2017-04-25 18:00:00 rrr = trazas y WW = 15 w1=2 w2=2 0.0 2017-04-25 17:56:00
1 2017-04-27 18:00:00 rrr = 0.6 y WW = 15 w1=2 w2=2 0.6 2017-04-27 18:04:00
1 2017-05-08 12:00:00 rrr = 35.6 y WW = 40 w1=4 w2=2 35.6 2017-05-11 18:23:00
1 2017-05-08 18:00:00 rrr = 0.2 y WW = 2 w1=4 w2=2 0.2 2017-05-08 18:03:00
1 2017-05-09 12:00:00 rrr = 0.1 y WW = 2 w1=2 w2=2 0.1 2017-05-09 11:57:00
1 2017-06-23 18:00:00 rrr = 0.1 y WW = 1 w1=1 w2=1 0.1 2017-06-23 18:04:00
1 2017-06-30 18:00:00 rrr = 0.6 y WW = 40 w1=4 w2=4 0.6 2017-06-30 18:05:00
1 2017-07-20 18:00:00 rrr = 0.1 y WW = 2 w1=2 w2=2 0.1 2017-07-20 17:57:00
1 2017-08-10 18:00:00 rrr = 0.1 y WW = 2 w1=2 w2=2 0.1 2017-08-10 18:02:00
1 2017-09-25 12:00:00 rrr = 2.3 y WW = 2 w1=2 w2=2 2.3 2017-09-25 11:57:00
1 2017-10-03 12:00:00 rrr = 3.1 y WW = 2 w1=2 w2=2 3.1 2017-10-03 11:56:00
1 2017-11-14 18:00:00 rrr = trazas y WW = 2 w1=2 w2=2 0.0 2017-11-14 17:56:00
1 2017-11-15 12:00:00 rrr = 0.7 y WW = 15 w1=2 w2=2 0.7 2017-11-15 12:02:00
1 2017-12-14 12:00:00 rrr = 6.5 y WW = 2 w1=2 w2=2 6.5 2017-12-14 12:01:00
1 2017-12-18 12:00:00 rrr = 0.8 y WW = 15 w1=2 w2=2 0.8 2017-12-18 12:13:00
1 2017-12-19 12:00:00 rrr = 0.1 y WW = 2 w1=2 w2=2 0.1 2017-12-19 12:07:00
1 2017-12-27 12:00:00 rrr = 0.1 y WW = 2 w1=2 w2=2 0.1 2017-12-27 12:02:00
1 2018-01-08 12:00:00 rrr = 0.1 y WW = 2 w1=2 w2=2 0.1 2018-01-08 11:57:00
1 2018-01-17 12:00:00 rrr = 1.9 y WW = 2 w1=2 w2=2 1.9 2018-01-17 12:32:00
1 2018-01-18 18:00:00 rrr = 0.1 y WW = 15 w1=2 w2=2 0.1 2018-01-18 17:57:00
1 2018-01-31 18:00:00 rrr = 0.1 y WW = 2 w1=2 w2=2 0.1 2018-01-31 18:08:00
1 2018-02-01 12:00:00 rrr = 3.3 y WW = 2 w1=2 w2=2 3.3 2018-02-01 11:52:00
1 2018-02-15 12:00:00 rrr = 5.3 y WW = 2 w1=2 w2=2 5.3 2018-02-15 12:03:00
1 2018-03-06 18:00:00 rrr = s/p y WW = 2 w1=8 w2=2 0.0 2018-03-06 18:05:00
1 2018-03-08 12:00:00 rrr = 21.8 y WW = 2 w1=2 w2=2 21.8 2018-03-08 11:59:00
1 2018-04-06 12:00:00 rrr = 4.2 y WW = 2 w1=2 w2=2 4.2 2018-04-06 11:57:00
1 2018-04-12 12:00:00 rrr = 2.1 y WW = 2 w1=2 w2=2 2.1 2018-04-12 12:03:00
1 2018-04-17 18:00:00 rrr = 0.1 y WW = 2 w1=2 w2=2 0.1 2018-04-17 17:53:00
1 2018-05-15 18:00:00 rrr = trazas y WW = 2 w1=2 w2=2 0.0 2018-05-15 17:56:00
1 2018-07-09 18:00:00 rrr = 0.2 y WW = 2 w1=2 w2=2 0.2 2018-07-09 17:59:00
1 2018-07-11 18:00:00 rrr = 0.5 y WW = 15 w1=2 w2=2 0.5 2018-07-11 17:56:00
1 2018-07-13 18:00:00 rrr = 0.5 y WW = 40 w1=2 w2=2 0.5 2018-07-13 17:50:00
1 2018-07-31 18:00:00 rrr = 0.2 y WW = 2 w1=2 w2=2 0.2 2018-07-31 18:00:00
1 2018-08-06 18:00:00 rrr = 0.2 y WW = 15 w1=2 w2=2 0.2 2018-08-06 17:55:00
1 2018-08-07 18:00:00 rrr = 0.1 y WW = 15 w1=2 w2=2 0.1 2018-08-07 17:55:00
1 2018-08-09 18:00:00 rrr = 0.5 y WW = 15 w1=2 w2=2 0.5 2018-08-09 18:04:00
1 2018-08-10 18:00:00 rrr = 0.1 y WW = 1 w1=1 w2=1 0.1 2018-08-10 17:52:00
1 2018-08-13 18:00:00 rrr = 0.1 y WW = 2 w1=2 w2=2 0.1 2018-08-13 17:59:00
1 2018-08-24 12:00:00 rrr = 1.6 y WW = 40 w1=4 w2=2 1.6 2018-08-24 11:59:00
1 2018-08-24 18:00:00 rrr = trazas y WW = 2 w1=2 w2=2 0.0 2018-08-24 17:52:00
1 2018-08-27 12:00:00 rrr = 1.5 y WW = 10 w1=2 w2=2 1.5 2018-08-27 11:58:00
1 2018-08-29 12:00:00 rrr = 0.3 y WW = 2 w1=2 w2=2 0.3 2018-08-29 11:55:00
1 2018-09-03 12:00:00 rrr = 1.8 y WW = 10 w1=4 w2=2 1.8 2018-09-03 12:45:00
1 2018-09-07 12:00:00 rrr = 4.5 y WW = 10 w1=2 w2=2 4.5 2018-09-07 11:54:00
1 2018-09-07 18:00:00 rrr = 0.1 y WW = 2 w1=2 w2=2 0.1 2018-09-07 17:58:00
1 2018-09-10 12:00:00 rrr = 0.4 y WW = 2 w1=2 w2=2 0.4 2018-09-10 12:03:00
1 2018-09-21 18:00:00 rrr = 0.1 y WW = 2 w1=2 w2=2 0.1 2018-09-21 18:01:00
1 2018-09-24 12:00:00 rrr = 10.8 y WW = 2 w1=2 w2=2 10.8 2018-09-24 18:49:00
1 2018-10-05 18:00:00 rrr = 0.1 y WW = 2 w1=2 w2=2 0.1 2018-10-05 17:59:00
1 2018-10-18 12:00:00 rrr = trazas y WW = 2 w1=2 w2=2 0.0 2018-10-18 11:55:00
1 2018-10-30 12:00:00 rrr = 0.4 y WW = 2 w1=2 w2=2 0.4 2018-10-30 11:53:00
1 2018-11-16 18:00:00 rrr = 0.3 y WW = 15 w1=2 w2=2 0.3 2018-11-16 17:59:00
1 2018-11-30 12:00:00 rrr = 1.3 y WW = 2 w1=2 w2=2 1.3 2018-11-30 11:52:00
1 2018-12-13 12:00:00 rrr = 0.3 y WW = 2 w1=2 w2=2 0.3 2018-12-13 11:51:00
1 2018-12-13 18:00:00 rrr = 0.1 y WW = 2 w1=2 w2=2 0.1 2018-12-13 18:00:00
1 2019-01-16 18:00:00 rrr = 0.2 y WW = 2 w1=2 w2=2 0.2 2019-01-16 17:58:00
1 2019-01-21 12:00:00 rrr = 6.0 y WW = 2 w1=2 w2=2 6.0 2019-01-21 11:52:00
1 2019-01-28 12:00:00 rrr = 0.8 y WW = 2 w1=2 w2=2 0.8 2019-05-31 18:49:00
1 2019-01-28 18:00:00 rrr = 0.8 y WW = 2 w1=2 w2=2 0.8 2019-05-31 18:56:00
1 2019-01-29 00:00:00 rrr = 3.0 y WW = 2 w1=2 w2=2 3.0 2019-05-31 18:57:00
1 2019-01-29 12:00:00 rrr = 2.9 y WW = 2 w1=2 w2=2 2.9 2019-05-31 18:51:00
1 2019-06-17 18:00:00 rrr = 0.1 y WW = 1 w1=1 w2=1 0.1 2019-06-17 17:59:00
1 2019-06-18 18:00:00 rrr = 0.1 y WW = 10 w1=4 w2=2 0.1 2019-06-18 18:07:00
1 2019-06-25 18:00:00 rrr = 0.1 y WW = 15 w1=2 w2=2 0.1 2019-06-25 17:56:00
1 2019-06-29 12:00:00 rrr = 0.1 y WW = 2 w1=2 w2=2 0.1 2019-07-01 18:54:00
1 2019-07-08 18:00:00 rrr = 0.1 y WW = 2 w1=2 w2=2 0.1 2019-07-08 18:00:00
1 2019-07-11 00:00:00 rrr = 0.4 y WW = 2 w1=2 w2=2 0.4 2019-09-24 19:07:00
1 2019-07-22 18:00:00 rrr = 0.1 y WW = 15 w1=2 w2=2 0.1 2019-07-22 17:59:00
1 2019-08-14 18:00:00 rrr = 0.1 y WW = 1 w1=1 w2=1 0.1 2019-08-14 17:58:00
1 2019-08-16 18:00:00 rrr = 0.1 y WW = 2 w1=2 w2=2 0.1 2019-08-16 17:58:00
1 2019-09-11 18:00:00 rrr = 0.1 y WW = 15 w1=2 w2=2 0.1 2019-10-16 16:49:00
1 2019-09-14 00:00:00 rrr = 1.5 y WW = 2 w1=2 w2=2 1.5 2019-10-16 18:36:00
1 2019-09-30 00:00:00 rrr = 1.2 y WW = 2 w1=2 w2=2 1.2 2019-11-05 14:35:00
1 2019-09-30 12:00:00 rrr = 6.2 y WW = 2 w1=2 w2=2 6.2 2019-11-05 14:39:00
1 2019-10-08 00:00:00 rrr = trazas y WW = 2 w1=2 w2=2 0.0 2019-11-05 17:43:00
1 2019-11-04 12:00:00 rrr = 13.6 y WW = 2 w1=2 w2=2 13.6 2019-11-04 11:46:00
1 2019-11-21 18:00:00 rrr = 0.6 y WW = 2 w1=2 w2=2 0.6 2019-11-21 17:59:00
1 2019-12-02 18:00:00 rrr = 0.3 y WW = 2 w1=2 w2=2 0.3 2019-12-02 18:00:00
1 2019-12-17 12:00:00 rrr = 0.1 y WW = 15 w1=2 w2=2 0.1 2019-12-17 11:57:00
1 2019-12-19 12:00:00 rrr = 7.1 y WW = 2 w1=2 w2=2 7.1 2019-12-19 12:00:00
1 2020-01-24 18:00:00 rrr = s/p y WW = 15 w1=5 w2=2 0.0 2020-01-24 18:01:00
1 2020-02-07 12:00:00 rrr = 2.0 y WW = 2 w1=2 w2=2 2.0 2020-02-07 12:10:00
1 2020-02-27 12:00:00 rrr = 0.1 y WW = 2 w1=2 w2=2 0.1 2020-02-27 11:53:00
1 2020-03-11 18:00:00 rrr = 0.3 y WW = 2 w1=2 w2=2 0.3 2020-03-11 17:56:00
1 2020-03-17 12:00:00 rrr = 0.6 y WW = 2 w1=2 w2=2 0.6 2020-03-17 11:57:00
1 2020-03-17 18:00:00 rrr = 0.3 y WW = 1 w1=1 w2=1 0.3 2020-03-17 18:02:00
1 2020-05-20 18:00:00 rrr = 0.1 y WW = 2 w1=2 w2=2 0.1 2020-05-20 18:02:00
1 2020-05-27 18:00:00 rrr = 0.5 y WW = 2 w1=2 w2=2 0.5 2020-05-27 18:01:00
1 2020-06-03 18:00:00 rrr = 0.1 y WW = 40 w1=4 w2=2 0.1 2020-06-03 18:03:00
1 2020-06-10 18:00:00 rrr = 0.2 y WW = 2 w1=2 w2=2 0.2 2020-06-10 18:11:00
1 2020-08-07 18:00:00 rrr = 0.1 y WW = 2 w1=2 w2=2 0.1 2020-08-07 17:59:00
1 2020-10-09 12:00:00 rrr = 0.4 y WW = 2 w1=2 w2=2 0.4 2020-10-09 12:04:00
1 2020-11-05 12:00:00 rrr = s/p y WW = 80 w1=8 w2=2 0.0 2020-11-05 11:58:00
1 2020-12-24 12:00:00 rrr = 0.7 y WW = 2 w1=2 w2=2 0.7 2020-12-24 12:04:00
1 2021-01-21 18:00:00 rrr = 0.1 y WW = 2 w1=2 w2=2 0.1 2021-01-21 17:59:00
1 2021-01-22 18:00:00 rrr = trazas y WW = 15 w1=2 w2=2 0.0 2021-01-22 18:00:00
1 2021-01-28 12:00:00 rrr = s/p y WW = 2 w1=8 w2=2 0.0 2021-01-28 11:57:00
1 2021-04-12 18:00:00 rrr = 0.1 y WW = 1 w1=1 w2=1 0.1 2021-04-12 18:00:00
1 2021-04-13 18:00:00 rrr = trazas y WW = 40 w1=2 w2=2 0.0 2021-04-13 18:01:00
1 2021-04-14 18:00:00 rrr = 1.1 y WW = 1 w1=1 w2=1 1.1 2021-04-14 17:59:00
1 2021-04-15 18:00:00 rrr = trazas y WW = 15 w1=2 w2=2 0.0 2021-04-15 18:00:00
1 2021-04-20 18:00:00 rrr = 0.1 y WW = 2 w1=2 w2=2 0.1 2021-04-20 18:01:00
1 2021-04-30 18:00:00 rrr = 0.9 y WW = 2 w1=2 w2=2 0.9 2021-04-30 18:03:00
1 2021-08-04 18:00:00 rrr = 0.1 y WW = 2 w1=2 w2=2 0.1 2021-08-04 18:03:00
1 2021-09-09 12:00:00 rrr = 0.7 y WW = 5 w1=4 w2=2 0.7 2021-09-09 11:52:00
1 2021-09-09 18:00:00 rrr = 0.2 y WW = 2 w1=2 w2=2 0.2 2021-09-09 17:52:00
1 2021-09-28 18:00:00 rrr = 0.1 y WW = 2 w1=2 w2=2 0.1 2021-09-28 17:59:00
1 2021-11-25 18:00:00 rrr = 0.1 y WW = 2 w1=2 w2=2 0.1 2021-11-25 17:59:00
1 2023-01-10 12:00:00 rrr = 1.1 y WW = 2 w1=2 w2=2 1.1 2023-01-10 11:59:00
1 2023-02-10 12:00:00 rrr = s/p y WW = 2 w1=8 w2=2 0.0 2023-02-10 11:59:00
1 2023-04-14 18:00:00 rrr = s/p y WW = 2 w1=5 w2=0 0.0 2023-04-14 17:59:00
1 2023-05-22 18:00:00 rrr = 0.1 y WW = 2 w1=4 w2=2 0.1 2023-05-22 18:03:00
1 2023-06-30 18:00:00 rrr = trazas y WW = 2 w1=2 w2=2 0.0 2023-06-30 17:59:00
1 2023-07-14 18:00:00 rrr = 0.5 y WW = 2 w1=2 w2=2 0.5 2023-07-14 17:58:00
1 2023-10-24 12:00:00 rrr = 0.2 y WW = 2 w1=2 w2=2 0.2 2023-10-24 11:58:00
1 2023-10-25 12:00:00 rrr = 1.4 y WW = 2 w1=2 w2=2 1.4 2023-10-25 12:02:00
1 2023-10-26 18:00:00 rrr = s/p y WW = 2 w1=8 w2=2 0.0 2023-10-26 18:00:00
1 2024-02-21 12:00:00 rrr = s/p y WW = 2 w1=8 w2=2 0.0 2024-02-21 11:46:00
1 2022-08-05 17:00:00 qfe debe ser menor o igual a qff 1024.5 - 1023.2 2022-08-05 17:08:00
Errores del Nivel 213
Nivel Fecha del Dato Descripción Información Error Fecha Ingreso
2 2022-06-01 00:00:00 Temperatura 5.3 del 31-05-2022 18:00, Mayor que la Máxima 4.1 01-06-2022 00:00 5.3 -- 4.1 2022-06-01 00:09:00
2 2022-07-29 00:00:00 Temperatura 10.2 del 28-07-2022 17:00, Mayor que la Máxima 9.9 29-07-2022 00:00 10.2 -- 9.9 2022-07-29 00:11:00
2 2022-08-24 00:00:00 Temperatura 8.2 del 23-08-2022 19:00, Mayor que la Máxima 7.4 24-08-2022 00:00 8.2 -- 7.4 2022-08-24 00:10:00
2 2022-09-01 00:00:00 Temperatura 10.6 del 31-08-2022 16:00, Mayor que la Máxima 7.8 01-09-2022 00:00 10.6 -- 7.8 2022-09-01 00:11:00
2 2022-09-06 00:00:00 Temperatura 13.5 del 05-09-2022 19:00, Mayor que la Máxima 13.2 06-09-2022 00:00 13.5 -- 13.2 2022-09-06 00:10:00
2 2023-02-10 00:00:00 Temperatura 18.0 del 09-02-2023 15:00, Mayor que la Máxima 17.4 10-02-2023 00:00 18.0 -- 17.4 2023-02-10 00:36:00
2 2023-02-25 00:00:00 Temperatura 17.2 del 24-02-2023 20:00, Mayor que la Máxima 15.5 25-02-2023 00:00 17.2 -- 15.5 2023-02-25 00:36:00
2 2023-03-24 00:00:00 Temperatura 17.6 del 23-03-2023 19:00, Mayor que la Máxima 17.5 24-03-2023 00:00 17.6 -- 17.5 2023-03-24 00:21:00
2 2023-04-22 00:00:00 Temperatura 13.4 del 21-04-2023 17:00, Mayor que la Máxima 12.3 22-04-2023 00:00 13.4 -- 12.3 2023-04-22 00:09:00
2 2023-05-24 00:00:00 Temperatura 10.1 del 23-05-2023 20:00, Mayor que la Máxima 8.7 24-05-2023 00:00 10.1 -- 8.7 2023-05-24 00:09:00
2 2023-05-25 00:00:00 Temperatura 6.6 del 24-05-2023 18:00, Mayor que la Máxima 4.6 25-05-2023 00:00 6.6 -- 4.6 2023-05-25 00:09:00
2 2023-05-26 00:00:00 Temperatura 6.2 del 25-05-2023 13:00, Mayor que la Máxima 5.8 26-05-2023 00:00 6.2 -- 5.8 2023-05-26 00:09:00
2 2023-05-30 00:00:00 Temperatura 7.7 del 29-05-2023 18:00, Mayor que la Máxima 6.7 30-05-2023 00:00 7.7 -- 6.7 2023-05-30 00:09:00
2 2023-06-08 00:00:00 Temperatura 7.6 del 07-06-2023 17:00, Mayor que la Máxima 6.8 08-06-2023 00:00 7.6 -- 6.8 2023-06-08 00:09:00
2 2023-06-16 00:00:00 Temperatura 6.9 del 15-06-2023 19:00, Mayor que la Máxima 4.4 16-06-2023 00:00 6.9 -- 4.4 2023-06-16 00:09:00
2 2023-07-25 00:00:00 Temperatura 3.1 del 24-07-2023 18:00, Mayor que la Máxima 2.9 25-07-2023 00:00 3.1 -- 2.9 2023-07-25 00:36:00
2 2023-08-08 00:00:00 Temperatura 9.9 del 07-08-2023 20:00, Mayor que la Máxima 7.4 08-08-2023 00:00 9.9 -- 7.4 2023-08-08 00:36:00
2 2023-09-09 00:00:00 Temperatura 10.7 del 08-09-2023 18:00, Mayor que la Máxima 10.6 09-09-2023 00:00 10.7 -- 10.6 2023-09-09 00:35:00
2 2023-09-05 12:00:00 Temperatura -1.9 del 05-09-2023 11:00, Menor que la Mínima -1.8 05-09-2023 12:00 -1.9 -- -1.8 2023-09-05 12:02:00
Errores del Nivel 19
Informe generado el 05-03-2024 11:34
Requerimiento: RE6001